Latest Weather Observations for Charlton

IDV60801

Issued at 1:31 pm EDT Wednesday 10 February 2016 (issued every 30 minutes, with the page automatically refreshed every 10 minutes)

About weather observations | Map of weather stations | Latest weather observations for VIC | Other Formats
Station Details ID: 080128 Name: CHARLTON Lat: -36.28 Lon: 143.33 Height: 131.7 m
Data from the previous 72 hours. | See also: Recent months at Charlton
Date/Time
EDT
Temp
°C
App
Temp
°C
Dew
Point
Rel
Hum
%
Delta-T
°C
Wind Press
QNH
hPa
Press
MSL
hPa
Rain
since 9 am
mm
Dir
 
Spd
km/h
Gust
km/h
Spd
kts
Gust
kts
10/01:30pm 32.0 27.8 3.9 17 14.6 SW 15 24 8 13 1013.1 1012.5 0.0
10/01:00pm 32.1 28.8 4.8 18 14.4 SSW 11 20 6 11 1013.5 1012.9 0.0
10/12:30pm 30.9 28.0 6.7 22 13.1 SSW 11 17 6 9 1013.8 1013.2 0.0
10/12:00pm 30.1 27.4 7.3 24 12.4 SW 11 17 6 9 1014.2 1013.6 0.0
10/11:30am 29.9 26.9 5.9 22 12.7 SSW 11 17 6 9 1014.6 1014.0 0.0
10/11:00am 28.6 26.5 8.3 28 11.1 S 9 15 5 8 1014.8 1014.2 0.0
10/10:30am 27.1 25.2 9.0 32 10.0 SSW 9 13 5 7 1015.0 1014.4 0.0
10/10:00am 25.5 24.1 8.9 35 9.0 SSE 6 9 3 5 1015.1 1014.5 0.0
10/09:30am 24.3 22.9 9.5 39 8.1 S 7 13 4 7 1015.1 1014.5 0.0
10/09:00am 23.3 21.9 9.7 42 7.4 SSE 7 11 4 6 1015.0 1014.4 0.0
10/08:30am 22.0 20.1 10.5 48 6.3 SSE 11 15 6 8 1014.6 1014.0 0.0
10/08:00am 19.5 19.7 10.5 56 4.9 CALM 0 6 0 3 1014.3 1013.7 0.0
10/07:30am 17.0 17.2 10.6 66 3.4 CALM 0 2 0 1 1013.9 1013.3 0.0
10/07:00am 16.8 16.5 10.2 65 3.5 S 2 9 1 5 1013.7 1013.1 0.0
10/06:30am 17.3 16.1 10.4 64 3.7 SSE 7 11 4 6 1013.4 1012.8 0.0
10/06:00am 16.7 15.7 10.3 66 3.4 SSE 6 7 3 4 1013.5 1012.9 0.0
10/05:30am 17.4 16.8 10.3 63 3.8 SSW 4 7 2 4 1013.3 1012.7 0.0
10/05:00am 18.5 16.7 10.8 61 4.2 SSE 11 15 6 8 1013.0 1012.4 0.0
10/04:30am 18.1 16.6 10.7 62 4.0 S 9 13 5 7 1012.9 1012.3 0.0
10/04:00am 18.7 17.6 10.8 60 4.3 S 7 11 4 6 1013.0 1012.4 0.0
10/03:30am 19.3 18.0 11.1 59 4.5 SSE 9 13 5 7 1013.1 1012.5 0.0
10/03:00am 19.6 18.3 11.1 58 4.7 SSE 9 15 5 8 1013.4 1012.8 0.0
10/02:30am 19.7 18.7 10.9 57 4.8 SSE 7 13 4 7 1013.7 1013.1 0.0
10/02:00am 20.0 18.9 10.7 55 5.1 SSE 7 11 4 6 1014.0 1013.4 0.0
10/01:30am 21.4 20.4 11.1 52 5.7 SSE 7 11 4 6 1014.2 1013.6 0.0
10/01:00am 21.7 20.2 10.5 49 6.2 S 9 11 5 6 1014.4 1013.8 0.0
10/12:30am 22.8 21.1 9.9 44 7.1 SSE 9 11 5 6 1014.3 1013.7 0.0
10/12:00am 24.4 21.8 9.2 38 8.3 SSE 13 17 7 9 1014.5 1013.9 0.0
 
Date/Time
EDT
Temp
°C
App
Temp
°C
Dew
Point
Rel
Hum
%
Delta-T
°C
Wind Press
QNH
hPa
Press
MSL
hPa
Rain
since 9 am
mm
Dir
 
Spd
km/h
Gust
km/h
Spd
kts
Gust
kts
09/11:30pm 23.6 21.1 6.4 33 8.9 S 9 13 5 7 1014.6 1014.0 0.0
09/11:00pm 23.1 20.6 4.6 30 9.2 S 7 11 4 6 1014.8 1014.2 0.0
09/10:30pm 24.8 21.7 3.5 25 10.5 S 9 11 5 6 1014.9 1014.3 0.0
09/10:00pm 26.1 23.3 3.4 23 11.3 SSW 7 11 4 6 1014.8 1014.2 0.0
09/09:30pm 26.9 24.3 4.0 23 11.6 SW 7 11 4 6 1014.5 1013.9 0.0
09/09:00pm 27.9 25.1 2.9 20 12.4 SW 7 11 4 6 1014.3 1013.7 0.0
09/08:30pm 29.6 26.6 2.0 17 13.7 SW 7 13 4 7 1014.2 1013.6 0.0
09/08:00pm 31.3 28.2 1.6 15 14.8 WSW 7 11 4 6 1014.3 1013.7 0.0
09/07:30pm 32.9 29.3 0.9 13 15.9 WSW 9 15 5 8 1014.1 1013.5 0.0
09/07:00pm 33.3 29.4 1.2 13 16.1 SW 11 17 6 9 1014.2 1013.6 0.0
09/06:30pm 33.7 30.4 2.5 14 16.0 SSW 9 19 5 10 1014.2 1013.6 0.0
09/06:00pm 33.9 30.4 3.7 15 15.8 WSW 11 20 6 11 1014.2 1013.6 0.0
09/05:30pm 34.1 31.2 2.8 14 16.2 WSW 7 15 4 8 1014.5 1013.9 0.0
09/05:00pm 33.9 31.6 4.6 16 15.6 SW 6 15 3 8 1014.9 1014.3 0.0
09/04:30pm 33.9 30.4 3.7 15 15.8 W 11 17 6 9 1015.1 1014.5 0.0
09/04:00pm 33.6 30.3 4.3 16 15.5 WSW 11 20 6 11 1015.6 1015.0 0.0
09/03:30pm 32.9 30.7 6.2 19 14.5 WSW 7 13 4 7 1015.9 1015.4 0.0
09/03:00pm 31.9 29.5 6.9 21 13.6 WNW 9 15 5 8 1016.4 1015.9 0.0
09/02:30pm 31.7 29.6 6.7 21 13.6 E 7 11 4 6 1016.9 1016.4 0.0
09/02:00pm 30.8 28.6 7.9 24 12.6 SSW 9 11 5 6 1017.3 1016.8 0.0
09/01:30pm 29.8 27.8 7.1 24 12.3 SW 7 11 4 6 1017.7 1017.2 0.0
09/01:00pm 28.7 26.4 7.3 26 11.5 NW 9 13 5 7 1018.1 1017.6 0.0
09/12:30pm 27.5 26.1 8.9 31 10.3 ENE 6 11 3 6 1018.7 1018.1 0.0
09/12:00pm 25.8 24.3 9.2 35 9.1 NNE 7 11 4 6 1019.1 1018.5 0.0
09/11:30am 25.0 23.3 9.7 38 8.4 E 9 15 5 8 1019.4 1018.8 0.0
09/11:00am 24.1 22.2 10.4 42 7.6 ESE 11 17 6 9 1019.7 1019.1 0.0
09/10:30am 23.2 21.0 10.9 46 6.9 SE 13 22 7 12 1019.7 1019.1 0.0
09/10:00am 21.7 19.7 11.4 52 5.7 SE 13 22 7 12 1019.8 1019.2 0.0
09/09:30am 20.3 18.2 11.2 56 5.0 SSE 13 17 7 9 1019.8 1019.2 0.0
09/09:00am 19.1 17.1 11.4 61 4.2 SSE 13 20 7 11 1020.0 1019.4 0.0
09/08:30am 17.7 15.6 11.3 66 3.5 SSE 13 17 7 9 1019.8 1019.2 0.0
09/08:00am 16.6 15.4 11.5 72 2.8 SSE 9 15 5 8 1019.6 1019.0 0.0
09/07:30am 14.6 13.7 11.4 81 1.7 S 7 11 4 6 1019.5 1018.9 0.0
09/07:00am 13.8 12.7 10.8 82 1.6 S 7 11 4 6 1019.3 1018.7 0.0
09/06:30am 13.7 12.8 10.5 81 1.7 S 6 11 3 6 1019.1 1018.5 0.0
09/06:00am 14.4 12.6 11.0 80 1.8 SSE 11 17 6 9 1018.9 1018.3 0.0
09/05:30am 14.4 12.6 10.8 79 1.9 SSE 11 15 6 8 1018.9 1018.3 0.0
09/05:00am 14.8 13.4 11.0 78 2.0 SSE 9 13 5 7 1019.0 1018.4 0.0
09/04:30am 15.2 13.8 11.0 76 2.2 SSE 9 15 5 8 1019.0 1018.4 0.0
09/04:00am 15.6 13.8 11.0 74 2.5 SSE 11 17 6 9 1019.0 1018.4 0.0
09/03:30am 15.9 13.7 10.7 71 2.8 SSE 13 20 7 11 1018.9 1018.3 0.0
09/03:00am 16.3 13.7 10.6 69 3.0 SSE 15 20 8 11 1019.1 1018.5 0.0
09/02:30am 16.6 13.7 9.8 64 3.6 SSE 15 20 8 11 1019.4 1018.8 0.0
09/02:00am 17.6 13.8 9.0 57 4.5 SSE 19 30 10 16 1019.5 1018.9 0.0
09/01:30am 18.6 14.7 9.4 55 4.9 SSE 20 33 11 18 1019.6 1019.0 0.0
09/01:00am 19.5 15.4 10.0 54 5.1 SSE 22 33 12 18 1019.8 1019.2 0.0
09/12:30am 20.3 15.1 10.4 53 5.4 SSE 28 37 15 20 1020.0 1019.4 0.0
09/12:00am 21.4 18.0 11.1 52 5.7 SSE 20 32 11 17 1019.8 1019.2 0.0
 
Date/Time
EDT
Temp
°C
App
Temp
°C
Dew
Point
Rel
Hum
%
Delta-T
°C
Wind Press
QNH
hPa
Press
MSL
hPa
Rain
since 9 am
mm
Dir
 
Spd
km/h
Gust
km/h
Spd
kts
Gust
kts
08/11:30pm 22.4 18.7 11.5 50 6.1 SSE 22 32 12 17 1019.8 1019.2 0.0
08/11:00pm 23.6 19.5 11.3 46 6.9 SSE 24 32 13 17 1019.8 1019.2 0.0
08/10:30pm 24.7 20.6 11.3 43 7.6 SSE 24 35 13 19 1019.7 1019.1 0.0
08/10:00pm 25.6 22.2 9.0 35 9.1 SSE 17 24 9 13 1019.3 1018.7 0.0
08/09:30pm 26.6 22.7 7.1 29 10.4 S 17 28 9 15 1018.9 1018.3 0.0
08/09:00pm 27.6 23.4 7.5 28 10.8 S 19 30 10 16 1018.4 1017.8 0.0
08/08:30pm 28.7 24.5 5.5 23 12.1 S 17 30 9 16 1017.9 1017.4 0.0
08/08:00pm 30.1 25.0 4.0 19 13.4 S 20 35 11 19 1017.5 1017.0 0.0
08/07:30pm 31.6 27.3 5.2 19 14.0 S 17 26 9 14 1017.2 1016.7 0.0
08/07:00pm 32.4 27.6 0.5 13 15.7 SW 15 24 8 13 1017.0 1016.5 0.0
08/06:30pm 33.3 28.8 2.2 14 15.8 SW 15 26 8 14 1016.9 1016.4 0.0
08/06:00pm 33.5 29.4 4.2 16 15.4 SSW 15 26 8 14 1016.9 1016.4 0.0
08/05:30pm 33.5 29.5 5.1 17 15.2 SSW 15 24 8 13 1017.1 1016.6 0.0
08/05:00pm 34.1 29.9 5.6 17 15.4 SW 17 26 9 14 1017.2 1016.7 0.0
08/04:30pm 34.4 31.3 8.9 21 14.5 SSW 15 26 8 14 1017.4 1016.9 0.0
08/04:00pm 34.4 31.7 10.3 23 14.0 SW 15 32 8 17 1017.5 1017.0 0.0
08/03:30pm 34.2 31.8 10.1 23 14.0 SSW 13 22 7 12 1017.8 1017.3 0.0
08/03:00pm 33.3 30.1 10.0 24 13.4 SW 17 24 9 13 1018.1 1017.6 0.0
08/02:30pm 33.0 31.5 10.4 25 13.1 S 9 19 5 10 1018.5 1017.9 0.0
08/02:00pm 32.7 30.5 9.5 24 13.2 SW 11 17 6 9 1018.9 1018.3 0.0
08/01:30pm 32.6 30.7 10.6 26 12.8 SSW 11 20 6 11 1019.2 1018.6 0.0
08/01:00pm 32.0 29.6 10.1 26 12.6 S 13 20 7 11 1019.5 1018.9 0.0
08/12:30pm 31.2 29.1 11.1 29 11.7 SSW 13 20 7 11 1019.7 1019.1 0.0
08/12:00pm 30.5 28.1 9.9 28 11.7 SSW 13 19 7 10 1019.8 1019.2 0.0
08/11:30am 28.9 27.7 11.5 34 10.1 SSE 9 19 5 10 1019.9 1019.3 0.0
08/11:00am 28.6 27.0 11.6 34 9.8 SSE 11 15 6 8 1020.0 1019.4 0.0
08/10:30am 26.9 25.6 12.5 40 8.4 SE 11 19 6 10 1020.1 1019.5 0.0
08/10:00am 24.8 23.4 13.4 49 6.7 SSE 13 19 7 10 1020.1 1019.5 0.0
08/09:30am 23.1 21.7 13.3 54 5.7 SSE 13 20 7 11 1020.1 1019.5 0.0
08/09:00am 21.9 19.8 13.5 59 4.9 SSE 17 24 9 13 1020.0 1019.4 0.0
08/08:30am 20.7 19.4 13.6 64 4.1 S 13 17 7 9 1019.8 1019.2 0.0
08/08:00am 19.4 18.6 12.9 66 3.7 S 9 15 5 8 1019.6 1019.0 0.0
08/07:30am 18.1 17.3 13.0 72 2.9 S 9 15 5 8 1019.3 1018.7 0.0
08/07:00am 17.7 16.9 12.8 73 2.7 S 9 13 5 7 1019.2 1018.6 0.0
08/06:30am 17.9 16.7 12.8 72 2.9 S 11 19 6 10 1019.0 1018.4 0.0
08/06:00am 18.2 16.5 12.6 70 3.1 S 13 20 7 11 1018.7 1018.1 0.0
08/05:30am 18.4 17.5 12.6 69 3.3 S 9 15 5 8 1018.6 1018.0 0.0
08/05:00am 18.7 17.8 12.7 68 3.4 S 9 17 5 9 1018.5 1017.9 0.0
08/04:30am 19.1 17.4 12.6 66 3.7 S 13 17 7 9 1018.2 1017.7 0.0
08/04:00am 19.7 18.0 12.5 63 4.1 S 13 20 7 11 1018.1 1017.6 0.0
08/03:30am 20.4 18.7 12.4 60 4.5 SSE 13 20 7 11 1018.0 1017.5 0.0
08/03:00am 21.0 19.4 12.7 59 4.7 S 13 22 7 12 1018.1 1017.6 0.0
08/02:30am 21.7 20.0 12.5 56 5.2 S 13 20 7 11 1018.1 1017.6 0.0
08/02:00am 22.3 20.6 12.5 53 5.6 S 13 24 7 13 1018.0 1017.5 0.0
08/01:30am 22.8 21.1 12.4 52 5.9 S 13 20 7 11 1017.9 1017.4 0.0
08/01:00am 23.5 21.7 12.2 49 6.4 SSE 13 22 7 12 1017.7 1017.2 0.0
08/12:30am 24.4 22.6 12.0 46 7.1 S 13 19 7 10 1017.6 1017.1 0.0
08/12:00am 25.1 23.6 12.0 44 7.5 S 11 15 6 8 1017.4 1016.9 0.0
 
Date/Time
EDT
Temp
°C
App
Temp
°C
Dew
Point
Rel
Hum
%
Delta-T
°C
Wind Press
QNH
hPa
Press
MSL
hPa
Rain
since 9 am
mm
Dir
 
Spd
km/h
Gust
km/h
Spd
kts
Gust
kts
07/11:30pm 26.0 23.3 11.7 41 8.2 SSE 17 24 9 13 1017.1 1016.6 0.0
07/11:00pm 26.6 23.5 11.5 39 8.6 SSE 19 28 10 15 1016.9 1016.4 0.0
07/10:30pm 27.6 23.5 11.6 37 9.2 SSE 24 32 13 17 1016.5 1016.0 0.0
07/10:00pm 28.8 24.5 12.2 35 9.7 SSE 26 39 14 21 1016.3 1015.8 0.0
07/09:59pm 29.0 24.4 12.4 36 9.8 SSE 28 39 15 21 1016.3 1015.8 0.0
07/09:30pm 27.8 27.2 11.8 37 9.3 W 6 9 3 5 1015.4 1014.8 0.0
07/09:00pm 28.9 29.4 11.5 34 10.1 CALM 0 0 0 0 1015.0 1014.4 0.0
07/08:30pm 30.8 30.7 9.6 27 12.0 CALM 0 0 0 0 1014.8 1014.2 0.0
07/08:00pm 32.8 32.4 8.3 22 13.7 CALM 0 0 0 0 1014.6 1014.0 0.0
07/07:30pm 33.6 32.7 7.6 20 14.5 SW 2 7 1 4 1014.4 1013.8 0.0
07/07:00pm 35.0 33.2 7.1 18 15.5 SSE 6 11 3 6 1014.1 1013.5 0.0
07/06:30pm 35.3 33.6 7.4 18 15.6 W 6 11 3 6 1014.1 1013.5 0.0
07/06:00pm 34.9 32.3 6.2 17 15.7 SSE 9 13 5 7 1014.1 1013.5 0.0
07/05:30pm 34.6 32.5 6.8 18 15.4 SSE 7 13 4 7 1014.1 1013.5 0.0
07/05:00pm 34.3 31.4 6.6 18 15.2 WNW 11 15 6 8 1014.2 1013.6 0.0
07/04:30pm 34.6 32.7 7.6 19 15.1 SSW 7 15 4 8 1014.5 1013.9 0.0
07/04:00pm 34.8 32.4 7.0 18 15.4 W 9 13 5 7 1014.7 1014.1 0.0
07/03:30pm 34.3 31.4 8.1 20 14.7 SSE 13 24 7 13 1014.9 1014.3 0.0
07/03:00pm 34.3 32.3 8.8 21 14.5 NNE 9 13 5 7 1015.2 1014.6 0.0
07/02:30pm 33.0 31.3 8.5 22 13.8 NNE 7 13 4 7 1015.6 1015.0 0.0
07/02:00pm 33.0 31.0 8.5 22 13.8 SE 9 17 5 9 1015.9 1015.4 0.0

Other Formats:

Comma delimited format used in spreadsheet applications
http://www.bom.gov.au/fwo/IDV60801/IDV60801.94839.axf

JavaScript Object Notation format (JSON) in row-major order
http://www.bom.gov.au/fwo/IDV60801/IDV60801.94839.json